createdAt,value
2022-08-04T00:00:19.411Z,22.92
2022-08-04T00:03:07.949Z,22.90
2022-08-04T00:05:52.703Z,22.87
2022-08-04T00:08:22.280Z,22.84
2022-08-04T00:10:53.580Z,22.80
2022-08-04T00:13:25.322Z,22.77
2022-08-04T00:16:10.830Z,22.74
2022-08-04T00:18:41.638Z,22.71
2022-08-04T00:21:14.827Z,22.67
2022-08-04T00:24:10.623Z,22.64
2022-08-04T00:26:33.435Z,22.60
2022-08-04T00:29:01.141Z,22.57
2022-08-04T00:31:53.641Z,22.52
2022-08-04T00:34:15.203Z,22.46
2022-08-04T00:36:44.500Z,22.26
2022-08-04T00:39:16.994Z,22.03
2022-08-04T00:42:04.930Z,21.88
2022-08-04T00:44:43.941Z,21.79
2022-08-04T00:47:49.062Z,21.77
2022-08-04T00:50:30.694Z,21.73
2022-08-04T00:53:07.503Z,21.70
2022-08-04T00:55:47.550Z,21.67
2022-08-04T00:58:42.439Z,21.64
2022-08-04T01:01:20.200Z,21.63
2022-08-04T01:04:07.137Z,21.61
2022-08-04T01:06:43.056Z,21.60
2022-08-04T01:09:21.871Z,21.61
2022-08-04T01:12:45.931Z,21.61
2022-08-04T01:16:00.554Z,21.61
2022-08-04T01:18:36.052Z,21.59
2022-08-04T01:21:29.839Z,21.57
2022-08-04T01:24:19.438Z,21.56
2022-08-04T01:27:11.605Z,21.55
2022-08-04T01:30:00.579Z,21.52
2022-08-04T01:33:03.595Z,21.49
2022-08-04T01:35:48.398Z,21.40
2022-08-04T01:38:33.427Z,21.27
2022-08-04T01:41:07.440Z,21.13
2022-08-04T01:43:35.996Z,21.03
2022-08-04T01:46:07.084Z,20.97
2022-08-04T01:48:35.483Z,20.93
2022-08-04T01:51:10.967Z,20.89
2022-08-04T01:53:43.058Z,20.84
2022-08-04T01:56:11.814Z,20.80
2022-08-04T01:58:40.126Z,20.79
2022-08-04T02:01:12.332Z,20.76
2022-08-04T02:04:21.027Z,20.75
2022-08-04T02:07:03.645Z,20.73
2022-08-04T02:09:54.530Z,20.73
2022-08-04T02:12:40.405Z,20.71
2022-08-04T02:15:21.174Z,20.70
2022-08-04T02:18:04.151Z,20.69
2022-08-04T02:20:38.193Z,20.69
2022-08-04T02:23:08.283Z,20.69
2022-08-04T02:25:40.168Z,20.70
2022-08-04T02:28:25.242Z,20.69
2022-08-04T02:31:31.634Z,20.67
2022-08-04T02:34:22.696Z,20.67
2022-08-04T02:36:52.476Z,20.66
2022-08-04T02:39:23.118Z,20.65
2022-08-04T02:41:50.679Z,20.62
2022-08-04T02:44:25.158Z,20.58
2022-08-04T02:46:53.489Z,20.53
2022-08-04T02:49:22.106Z,20.50
2022-08-04T02:51:57.173Z,20.45
2022-08-04T02:54:32.899Z,20.40
2022-08-04T02:57:02.627Z,20.35
2022-08-04T02:59:59.808Z,20.31
2022-08-04T03:02:52.558Z,20.27
2022-08-04T03:05:25.329Z,20.27
2022-08-04T03:08:21.277Z,20.27
2022-08-04T03:11:17.482Z,20.25
2022-08-04T03:14:15.568Z,20.23
2022-08-04T03:17:23.068Z,20.22
2022-08-04T03:19:52.686Z,20.21
2022-08-04T03:22:34.706Z,20.21
2022-08-04T03:25:23.570Z,20.20
2022-08-04T03:28:11.171Z,20.19
2022-08-04T03:30:58.960Z,20.17
2022-08-04T03:33:40.449Z,20.16
2022-08-04T03:36:19.169Z,20.18
2022-08-04T03:38:58.577Z,20.18
2022-08-04T03:42:03.533Z,20.17
2022-08-04T03:45:04.183Z,20.16
2022-08-04T03:48:08.921Z,20.16
2022-08-04T03:51:34.941Z,20.15
2022-08-04T03:54:10.223Z,20.13
2022-08-04T03:57:00.298Z,20.12
2022-08-04T03:59:52.390Z,20.10
2022-08-04T04:03:05.641Z,20.09
2022-08-04T04:05:59.851Z,20.07
2022-08-04T04:08:41.595Z,20.06
2022-08-04T04:11:11.960Z,20.06
2022-08-04T04:14:00.750Z,20.09
2022-08-04T04:16:49.802Z,20.13
2022-08-04T04:19:39.029Z,20.14
2022-08-04T04:22:22.306Z,20.15
2022-08-04T04:25:19.199Z,20.16
2022-08-04T04:28:45.567Z,20.17
2022-08-04T04:31:10.446Z,20.20
2022-08-04T04:33:50.061Z,20.23
2022-08-04T04:36:49.299Z,20.27
2022-08-04T04:39:35.091Z,20.31
2022-08-04T04:42:14.796Z,20.38
2022-08-04T04:45:07.104Z,20.43
2022-08-04T04:48:08.489Z,20.48
2022-08-04T04:51:14.783Z,20.53
2022-08-04T04:54:04.904Z,20.56
2022-08-04T04:56:43.830Z,20.60
2022-08-04T04:59:15.572Z,20.64
2022-08-04T05:02:06.193Z,20.69
2022-08-04T05:04:39.079Z,20.75
2022-08-04T05:07:36.518Z,20.80
2022-08-04T05:10:21.483Z,20.84
2022-08-04T05:14:36.727Z,20.89
2022-08-04T05:16:17.151Z,20.98
2022-08-04T05:18:49.681Z,21.04
2022-08-04T05:21:39.647Z,21.08
2022-08-04T05:24:10.621Z,21.15
2022-08-04T05:27:00.900Z,21.23
2022-08-04T05:29:31.924Z,21.32
2022-08-04T05:32:04.828Z,21.41
2022-08-04T05:34:39.330Z,21.48
2022-08-04T05:37:12.005Z,21.52
2022-08-04T05:40:06.157Z,21.51
2022-08-04T05:42:37.061Z,21.53
2022-08-04T05:45:05.519Z,21.61
2022-08-04T05:47:33.409Z,21.76
2022-08-04T05:50:03.116Z,21.91
2022-08-04T05:52:31.616Z,22.09
2022-08-04T05:55:00.567Z,22.29
2022-08-04T05:57:28.911Z,22.47
2022-08-04T05:59:58.780Z,22.59
2022-08-04T06:02:27.827Z,22.71
2022-08-04T06:04:56.514Z,22.85
2022-08-04T06:07:23.713Z,22.96
2022-08-04T06:09:50.980Z,23.12
2022-08-04T06:12:26.780Z,23.28
2022-08-04T06:14:59.414Z,23.46
2022-08-04T06:19:56.400Z,23.64
2022-08-04T06:20:22.119Z,23.79
2022-08-04T06:22:57.650Z,23.94
2022-08-04T06:25:28.441Z,24.06
2022-08-04T06:27:56.114Z,24.20
2022-08-04T06:30:26.635Z,24.36
2022-08-04T06:33:04.087Z,24.53
2022-08-04T06:35:33.681Z,24.70
2022-08-04T06:38:02.172Z,24.88
2022-08-04T06:40:33.310Z,25.08
2022-08-04T06:43:06.498Z,25.24
2022-08-04T06:45:39.821Z,25.35
2022-08-04T06:48:08.202Z,25.50
2022-08-04T06:51:28.656Z,25.71
2022-08-04T06:53:27.352Z,25.98
2022-08-04T06:55:56.129Z,26.22
2022-08-04T06:58:24.894Z,26.38
2022-08-04T07:00:55.816Z,26.49
2022-08-04T07:03:22.968Z,26.68
2022-08-04T07:05:51.537Z,26.92
2022-08-04T07:08:19.237Z,27.09
2022-08-04T07:10:46.590Z,27.27
2022-08-04T07:13:13.867Z,27.44
2022-08-04T07:15:48.772Z,27.59
2022-08-04T07:18:16.368Z,27.78
2022-08-04T07:20:44.797Z,27.96
2022-08-04T07:23:17.390Z,28.14
2022-08-04T07:25:59.423Z,28.32
2022-08-04T07:28:30.677Z,28.52
2022-08-04T07:30:58.873Z,28.73
2022-08-04T07:33:26.358Z,28.92
2022-08-04T07:36:05.091Z,29.11
2022-08-04T07:38:48.794Z,29.28
2022-08-04T07:41:41.417Z,29.51
2022-08-04T07:44:10.530Z,29.78
2022-08-04T07:46:37.522Z,29.96
2022-08-04T07:49:05.638Z,30.10
2022-08-04T07:51:35.378Z,30.27
2022-08-04T07:54:04.063Z,30.48
2022-08-04T07:56:31.829Z,30.64
2022-08-04T07:58:59.808Z,30.71
2022-08-04T08:01:27.516Z,30.81
2022-08-04T08:03:56.687Z,30.90
2022-08-04T08:06:33.118Z,31.03
2022-08-04T08:09:13.087Z,31.15
2022-08-04T08:12:35.113Z,31.28
2022-08-04T08:14:35.451Z,31.38
2022-08-04T08:17:03.253Z,31.48
2022-08-04T08:19:34.849Z,31.61
2022-08-04T08:22:02.408Z,31.69
2022-08-04T08:24:31.585Z,31.80
2022-08-04T08:26:59.981Z,31.95
2022-08-04T08:29:27.546Z,32.13
2022-08-04T08:31:57.555Z,32.30
2022-08-04T08:34:27.939Z,32.46
2022-08-04T08:37:09.745Z,32.54
2022-08-04T08:39:41.665Z,32.54
2022-08-04T08:42:47.800Z,32.61
2022-08-04T08:45:43.218Z,32.81
2022-08-04T08:48:34.720Z,33.01
2022-08-04T08:51:31.480Z,33.15
2022-08-04T08:54:30.188Z,33.15
2022-08-04T08:57:19.106Z,33.24
2022-08-04T09:00:01.568Z,33.47
2022-08-04T09:02:46.379Z,33.72
2022-08-04T09:05:37.919Z,33.93
2022-08-04T09:08:16.907Z,34.04
2022-08-04T09:11:09.047Z,34.14
2022-08-04T09:13:47.452Z,34.24
2022-08-04T09:16:37.300Z,34.35
2022-08-04T09:19:17.685Z,34.45
2022-08-04T09:22:29.429Z,34.54
2022-08-04T09:25:08.363Z,34.66
2022-08-04T09:27:44.119Z,34.72
2022-08-04T09:30:13.582Z,34.82
2022-08-04T09:33:06.588Z,34.90
2022-08-04T09:35:57.266Z,34.96
2022-08-04T09:38:52.383Z,35.09
2022-08-04T09:41:48.544Z,35.14
2022-08-04T09:44:58.739Z,35.28
2022-08-04T09:47:51.299Z,35.39
2022-08-04T09:50:34.829Z,35.50
2022-08-04T09:53:20.284Z,35.67
2022-08-04T09:55:54.809Z,35.83
2022-08-04T09:58:40.742Z,35.94
2022-08-04T10:01:15.567Z,36.01
2022-08-04T10:03:50.204Z,36.12
2022-08-04T10:06:48.178Z,36.21
2022-08-04T10:09:35.577Z,36.42
2022-08-04T10:12:08.038Z,36.57
2022-08-04T10:14:46.712Z,36.61
2022-08-04T10:17:27.375Z,36.62
2022-08-04T10:20:07.594Z,36.64
2022-08-04T10:23:02.180Z,36.55
2022-08-04T10:26:08.544Z,36.52
2022-08-04T10:28:52.411Z,36.48
2022-08-04T10:31:33.404Z,36.45
2022-08-04T10:34:20.398Z,36.50
2022-08-04T10:36:58.438Z,36.53
2022-08-04T10:40:05.201Z,36.57
2022-08-04T10:42:37.443Z,36.64
2022-08-04T10:45:24.150Z,36.77
2022-08-04T10:48:34.304Z,36.72
2022-08-04T10:51:20.438Z,36.62
2022-08-04T10:53:56.767Z,36.61
2022-08-04T10:56:42.021Z,36.69
2022-08-04T10:59:18.943Z,36.90
2022-08-04T11:02:00.714Z,37.09
2022-08-04T11:04:52.644Z,37.25
2022-08-04T11:07:21.177Z,37.25
2022-08-04T11:09:48.568Z,37.25
2022-08-04T11:12:19.746Z,37.32
2022-08-04T11:14:53.391Z,37.41
2022-08-04T11:17:28.508Z,37.45
2022-08-04T11:20:36.811Z,37.48
2022-08-04T11:23:18.227Z,37.51
2022-08-04T11:26:14.609Z,37.54
2022-08-04T11:29:09.876Z,37.77
2022-08-04T11:31:41.879Z,37.99
2022-08-04T11:34:28.044Z,38.15
2022-08-04T11:37:15.011Z,38.24
2022-08-04T11:39:51.378Z,38.30
2022-08-04T11:42:28.696Z,38.39
2022-08-04T11:45:07.193Z,38.38
2022-08-04T11:47:38.876Z,38.12
2022-08-04T11:50:38.949Z,37.97
2022-08-04T11:53:07.057Z,38.00
2022-08-04T11:56:07.538Z,37.91
2022-08-04T11:58:24.437Z,37.80
2022-08-04T12:00:58.876Z,37.79
2022-08-04T12:04:03.110Z,37.80
2022-08-04T12:06:56.765Z,38.12
2022-08-04T12:09:56.666Z,38.46
2022-08-04T12:12:38.014Z,38.78
2022-08-04T12:15:40.052Z,38.95
2022-08-04T12:18:33.282Z,39.07
2022-08-04T12:21:22.791Z,39.31
2022-08-04T12:23:57.821Z,39.67
2022-08-04T12:26:38.504Z,40.22
2022-08-04T12:29:10.284Z,40.57
2022-08-04T12:31:52.997Z,40.74
2022-08-04T12:34:34.314Z,41.00
2022-08-04T12:37:30.268Z,41.12
2022-08-04T12:40:21.585Z,41.62
2022-08-04T12:43:18.114Z,42.12
2022-08-04T12:45:58.263Z,42.60
2022-08-04T12:48:26.605Z,42.85
2022-08-04T12:50:55.954Z,42.96
2022-08-04T12:53:32.017Z,42.89
2022-08-04T12:56:01.424Z,43.06
2022-08-04T12:58:42.344Z,43.40
2022-08-04T13:02:08.979Z,43.66
2022-08-04T13:04:14.420Z,43.83
2022-08-04T13:06:42.889Z,44.09
2022-08-04T13:09:17.582Z,43.45
2022-08-04T13:11:53.088Z,42.78
2022-08-04T13:14:27.574Z,42.68
2022-08-04T13:17:01.780Z,43.49
2022-08-04T13:19:31.219Z,44.35
2022-08-04T13:22:08.420Z,44.88
2022-08-04T13:24:56.938Z,45.47
2022-08-04T13:27:25.746Z,45.76
2022-08-04T13:29:58.779Z,45.88
2022-08-04T13:32:31.605Z,45.66
2022-08-04T13:35:01.849Z,44.82
2022-08-04T13:37:36.829Z,43.52
2022-08-04T13:40:06.540Z,42.52
2022-08-04T13:42:35.859Z,41.68
2022-08-04T13:45:04.615Z,40.92
2022-08-04T13:47:38.162Z,40.24
2022-08-04T13:50:20.419Z,39.59
2022-08-04T13:52:47.997Z,38.87
2022-08-04T13:55:26.719Z,38.42
2022-08-04T13:57:58.345Z,38.20
2022-08-04T14:00:29.727Z,38.29
2022-08-04T14:03:03.600Z,38.17
2022-08-04T14:06:21.256Z,38.10
2022-08-04T14:08:49.753Z,38.03
2022-08-04T14:12:01.528Z,37.92
2022-08-04T14:14:18.023Z,37.92
2022-08-04T14:17:05.705Z,38.05
2022-08-04T14:19:47.898Z,38.56
2022-08-04T14:22:26.438Z,39.40
2022-08-04T14:25:16.611Z,40.14
2022-08-04T14:27:55.074Z,41.22
2022-08-04T14:30:32.741Z,41.48
2022-08-04T14:33:59.594Z,41.04
2022-08-04T14:36:04.172Z,40.55
2022-08-04T14:38:52.422Z,40.71
2022-08-04T14:41:26.448Z,41.97
2022-08-04T14:43:55.643Z,42.47
2022-08-04T14:46:24.108Z,42.18
2022-08-04T14:49:13.238Z,41.45
2022-08-04T14:51:45.553Z,41.75
2022-08-04T14:54:18.473Z,42.25
2022-08-04T14:56:58.015Z,42.71
2022-08-04T14:59:25.594Z,43.13
2022-08-04T15:02:00.176Z,43.08
2022-08-04T15:04:31.330Z,42.53
2022-08-04T15:06:58.516Z,41.83
2022-08-04T15:09:25.734Z,41.05
2022-08-04T15:11:52.918Z,40.49
2022-08-04T15:14:37.108Z,39.89
2022-08-04T15:17:11.538Z,39.34
2022-08-04T15:19:39.962Z,38.90
2022-08-04T15:22:07.223Z,38.44
2022-08-04T15:24:44.388Z,37.99
2022-08-04T15:27:20.614Z,37.83
2022-08-04T15:29:59.765Z,38.21
2022-08-04T15:32:32.266Z,39.07
2022-08-04T15:35:06.636Z,39.33
2022-08-04T15:37:49.539Z,39.27
2022-08-04T15:40:32.933Z,39.01
2022-08-04T15:43:39.636Z,38.82
2022-08-04T15:46:42.411Z,39.03
2022-08-04T15:48:53.691Z,38.87
2022-08-04T15:51:32.199Z,38.40
2022-08-04T15:54:02.944Z,37.73
2022-08-04T15:56:30.896Z,37.06
2022-08-04T15:58:58.177Z,36.61
2022-08-04T16:01:25.316Z,36.31
2022-08-04T16:04:01.055Z,35.86
2022-08-04T16:06:29.463Z,35.48
2022-08-04T16:09:01.819Z,34.86
2022-08-04T16:11:37.021Z,34.13
2022-08-04T16:14:09.744Z,33.44
2022-08-04T16:16:51.312Z,32.96
2022-08-04T16:19:35.489Z,32.50
2022-08-04T16:22:04.282Z,32.19
2022-08-04T16:24:37.186Z,32.03
2022-08-04T16:27:06.366Z,31.76
2022-08-04T16:29:42.173Z,31.49
2022-08-04T16:32:20.420Z,31.11
2022-08-04T16:34:57.018Z,30.89
2022-08-04T16:37:35.888Z,30.67
2022-08-04T16:40:38.125Z,30.51
2022-08-04T16:43:13.088Z,30.28
2022-08-04T16:45:49.394Z,30.06
2022-08-04T16:48:18.590Z,29.86
2022-08-04T16:51:09.783Z,29.69
2022-08-04T16:53:52.324Z,29.56
2022-08-04T16:56:28.807Z,29.43
2022-08-04T16:58:56.263Z,29.33
2022-08-04T17:01:33.246Z,29.24
2022-08-04T17:04:04.951Z,29.11
2022-08-04T17:06:39.219Z,29.04
2022-08-04T17:09:10.616Z,28.98
2022-08-04T17:11:37.799Z,28.93
2022-08-04T17:14:06.165Z,28.86
2022-08-04T17:16:43.203Z,28.84
2022-08-04T17:19:23.825Z,28.81
2022-08-04T17:22:06.086Z,28.74
2022-08-04T17:24:35.182Z,28.71
2022-08-04T17:27:04.041Z,28.71
2022-08-04T17:29:44.268Z,28.73
2022-08-04T17:32:21.344Z,28.77
2022-08-04T17:34:50.115Z,28.79
2022-08-04T17:37:52.058Z,28.82
2022-08-04T17:40:14.241Z,28.82
2022-08-04T17:42:45.296Z,28.78
2022-08-04T17:48:08.743Z,28.75
2022-08-04T17:50:36.389Z,28.74
2022-08-04T17:53:11.446Z,28.71
2022-08-04T17:55:42.707Z,28.64
2022-08-04T18:01:28.066Z,28.46
2022-08-04T18:03:58.033Z,28.35
2022-08-04T18:06:25.528Z,28.23
2022-08-04T18:08:59.230Z,28.12
2022-08-04T18:11:55.190Z,28.01
2022-08-04T18:14:28.676Z,27.93
2022-08-04T18:16:56.185Z,27.85
2022-08-04T18:19:23.830Z,27.76
2022-08-04T18:24:55.684Z,27.51
2022-08-04T18:27:29.967Z,27.38
2022-08-04T18:33:24.355Z,27.21
2022-08-04T18:36:34.877Z,27.15
2022-08-04T18:38:23.296Z,27.09
2022-08-04T18:40:54.256Z,27.06
2022-08-04T18:43:28.364Z,27.06
2022-08-04T18:46:12.470Z,27.10
2022-08-04T18:48:41.955Z,27.11
2022-08-04T18:51:23.055Z,27.08
2022-08-04T18:53:54.906Z,27.07
2022-08-04T18:56:30.064Z,27.02
2022-08-04T18:59:04.707Z,26.94
2022-08-04T19:04:33.184Z,26.78
2022-08-04T19:07:30.303Z,26.74
2022-08-04T19:09:57.379Z,26.68
2022-08-04T19:12:27.447Z,26.58
2022-08-04T19:15:08.923Z,26.48
2022-08-04T19:17:52.669Z,26.38
2022-08-04T19:20:25.741Z,26.27
2022-08-04T19:24:29.421Z,26.18
2022-08-04T19:25:59.229Z,26.11
2022-08-04T19:28:31.678Z,26.03
2022-08-04T19:31:01.594Z,25.97
2022-08-04T19:33:55.276Z,25.94
2022-08-04T19:36:17.171Z,25.90
2022-08-04T19:38:45.280Z,25.87
2022-08-04T19:41:14.389Z,25.84
2022-08-04T19:43:43.998Z,25.78
2022-08-04T19:46:12.077Z,25.71
2022-08-04T19:48:40.065Z,25.66
2022-08-04T19:51:07.832Z,25.65
2022-08-04T19:53:37.113Z,25.64
2022-08-04T19:56:08.345Z,25.63
2022-08-04T19:58:35.076Z,25.61
2022-08-04T20:01:01.980Z,25.60
2022-08-04T20:04:09.924Z,25.57
2022-08-04T20:06:15.838Z,25.54
2022-08-04T20:08:48.016Z,25.52
2022-08-04T20:11:16.318Z,25.50
2022-08-04T20:13:44.167Z,25.48
2022-08-04T20:16:30.136Z,25.48
2022-08-04T20:19:03.118Z,25.46
2022-08-04T20:21:36.575Z,25.43
2022-08-04T20:24:39.170Z,25.40
2022-08-04T20:27:07.698Z,25.35
2022-08-04T20:29:40.428Z,25.33
2022-08-04T20:32:08.972Z,25.30
2022-08-04T20:34:37.400Z,25.25
2022-08-04T20:37:04.352Z,25.18
2022-08-04T20:39:31.517Z,25.13
2022-08-04T20:41:58.672Z,25.11
2022-08-04T20:44:25.791Z,25.07
2022-08-04T20:46:53.428Z,24.99
2022-08-04T20:49:20.357Z,24.91
2022-08-04T20:51:50.328Z,24.83
2022-08-04T20:54:26.571Z,24.77
2022-08-04T20:56:56.507Z,24.73
2022-08-04T20:59:26.803Z,24.67
2022-08-04T21:01:54.102Z,24.61
2022-08-04T21:04:35.555Z,24.56
2022-08-04T21:07:05.599Z,24.49
2022-08-04T21:09:38.519Z,24.40
2022-08-04T21:12:26.588Z,24.32
2022-08-04T21:14:54.108Z,24.24
2022-08-04T21:17:56.777Z,24.17
2022-08-04T21:20:12.658Z,24.12
2022-08-04T21:22:40.222Z,24.07
2022-08-04T21:27:55.575Z,23.99
2022-08-04T21:30:26.698Z,23.96
2022-08-04T21:32:54.914Z,23.91
2022-08-04T21:35:26.707Z,23.86
2022-08-04T21:38:16.649Z,23.79
2022-08-04T21:40:54.971Z,23.75
2022-08-04T21:43:23.666Z,23.71
2022-08-04T21:45:54.904Z,23.69
2022-08-04T21:48:23.292Z,23.67
2022-08-04T21:50:54.577Z,23.63
2022-08-04T21:53:22.236Z,23.60
2022-08-04T21:56:04.482Z,23.58
2022-08-04T21:58:34.715Z,23.55
2022-08-04T22:01:12.716Z,23.53
2022-08-04T22:03:53.200Z,23.49
2022-08-04T22:06:28.745Z,23.46
2022-08-04T22:08:57.074Z,23.42
2022-08-04T22:11:44.240Z,23.38
2022-08-04T22:14:17.136Z,23.33
2022-08-04T22:16:49.661Z,23.27
2022-08-04T22:19:16.776Z,23.20
2022-08-04T22:21:51.123Z,23.14
2022-08-04T22:24:18.449Z,23.10
2022-08-04T22:26:49.261Z,23.07
2022-08-04T22:29:17.971Z,23.02
2022-08-04T22:31:53.359Z,22.96
2022-08-04T22:34:24.052Z,22.90
2022-08-04T22:36:52.594Z,22.85
2022-08-04T22:39:23.491Z,22.79
2022-08-04T22:42:03.820Z,22.74
2022-08-04T22:44:33.314Z,22.68
2022-08-04T22:47:01.300Z,22.59
2022-08-04T22:49:31.303Z,22.51
2022-08-04T22:51:59.366Z,22.43
2022-08-04T22:54:29.587Z,22.38
2022-08-04T22:56:57.136Z,22.36
2022-08-04T22:59:24.749Z,22.32
2022-08-04T23:01:59.836Z,22.30
2022-08-04T23:04:29.664Z,22.27
2022-08-04T23:06:56.994Z,22.24
2022-08-04T23:09:26.906Z,22.23
2022-08-04T23:12:27.926Z,22.19
2022-08-04T23:14:58.635Z,22.16
2022-08-04T23:17:27.325Z,22.12
2022-08-04T23:19:58.633Z,22.09
2022-08-04T23:22:40.941Z,22.05
2022-08-04T23:25:15.391Z,22.01
2022-08-04T23:27:50.549Z,21.95
2022-08-04T23:30:21.761Z,21.89
2022-08-04T23:32:53.288Z,21.83
2022-08-04T23:35:22.474Z,21.77
2022-08-04T23:37:56.624Z,21.74
2022-08-04T23:40:32.930Z,21.70
2022-08-04T23:43:00.976Z,21.66
2022-08-04T23:46:04.322Z,21.63
2022-08-04T23:48:19.422Z,21.57
2022-08-04T23:50:48.515Z,21.53
2022-08-04T23:53:18.488Z,21.48
2022-08-04T23:55:49.408Z,21.43
2022-08-04T23:58:19.060Z,21.38
